createdAt,value
2023-05-20T00:01:55.719Z,100196.73
2023-05-20T00:04:23.041Z,100197.64
2023-05-20T00:06:50.432Z,100195.96
2023-05-20T00:09:17.680Z,100195.36
2023-05-20T00:11:46.383Z,100191.27
2023-05-20T00:14:14.758Z,100192.02
2023-05-20T00:16:42.028Z,100192.55
2023-05-20T00:19:09.516Z,100190.10
2023-05-20T00:21:36.826Z,100195.48
2023-05-20T00:24:04.213Z,100195.42
2023-05-20T00:26:31.512Z,100195.84
2023-05-20T00:28:59.406Z,100196.06
2023-05-20T00:31:26.737Z,100200.66
2023-05-20T00:33:54.151Z,100199.81
2023-05-20T00:36:21.479Z,100195.44
2023-05-20T00:38:48.837Z,100194.23
2023-05-20T00:41:16.097Z,100193.80
2023-05-20T00:43:43.350Z,100193.33
2023-05-20T00:46:10.893Z,100195.45
2023-05-20T00:48:41.840Z,100187.39
2023-05-20T00:51:10.441Z,100186.81
2023-05-20T00:53:37.697Z,100188.61
2023-05-20T00:56:05.615Z,100193.15
2023-05-20T00:58:33.126Z,100194.33
2023-05-20T01:01:00.422Z,100194.94
2023-05-20T01:03:28.510Z,100191.92
2023-05-20T01:05:56.011Z,100192.52
2023-05-20T01:08:23.882Z,100192.59
2023-05-20T01:11:22.778Z,100191.85
2023-05-20T01:13:54.948Z,100187.67
2023-05-20T01:16:23.773Z,100185.12
2023-05-20T01:18:51.754Z,100189.02
2023-05-20T01:21:18.970Z,100187.08
2023-05-20T01:23:46.218Z,100187.61
2023-05-20T01:26:17.518Z,100189.22
2023-05-20T01:28:46.267Z,100188.51
2023-05-20T01:31:24.189Z,100187.86
2023-05-20T01:33:52.676Z,100190.56
2023-05-20T01:36:20.105Z,100191.45
2023-05-20T01:38:47.363Z,100190.21
2023-05-20T01:41:14.629Z,100189.42
2023-05-20T01:43:41.981Z,100186.96
2023-05-20T01:46:09.264Z,100194.27
2023-05-20T01:48:36.897Z,100196.75
2023-05-20T01:51:04.150Z,100200.89
2023-05-20T01:53:31.415Z,100202.86
2023-05-20T01:55:59.382Z,100206.23
2023-05-20T01:58:26.933Z,100211.34
2023-05-20T02:00:54.211Z,100209.96
2023-05-20T02:03:21.477Z,100211.38
2023-05-20T02:05:48.920Z,100210.48
2023-05-20T02:08:16.268Z,100203.77
2023-05-20T02:10:44.646Z,100210.10
2023-05-20T02:13:12.927Z,100209.58
2023-05-20T02:15:44.072Z,100209.17
2023-05-20T02:18:12.927Z,100209.55
2023-05-20T02:20:41.379Z,100210.39
2023-05-20T02:23:09.120Z,100210.75
2023-05-20T02:25:37.299Z,100211.86
2023-05-20T02:28:06.338Z,100212.97
2023-05-20T02:30:34.577Z,100214.90
2023-05-20T02:33:02.690Z,100215.09
2023-05-20T02:35:30.005Z,100212.52
2023-05-20T02:37:57.465Z,100211.98
2023-05-20T02:40:24.720Z,100211.11
2023-05-20T02:42:52.074Z,100211.68
2023-05-20T02:45:19.332Z,100214.96
2023-05-20T02:47:46.641Z,100215.50
2023-05-20T02:50:13.953Z,100220.80
2023-05-20T02:52:42.917Z,100222.52
2023-05-20T02:55:10.913Z,100228.43
2023-05-20T02:57:38.645Z,100229.16
2023-05-20T03:00:11.296Z,100231.58
2023-05-20T03:02:38.637Z,100231.14
2023-05-20T03:05:08.245Z,100231.88
2023-05-20T03:07:36.989Z,100230.17
2023-05-20T03:10:08.163Z,100231.48
2023-05-20T03:12:35.413Z,100235.75
2023-05-20T03:15:02.688Z,100235.45
2023-05-20T03:17:29.944Z,100237.77
2023-05-20T03:19:57.595Z,100228.80
2023-05-20T03:22:25.252Z,100229.60
2023-05-20T03:24:53.331Z,100230.02
2023-05-20T03:27:21.658Z,100231.05
2023-05-20T03:29:49.271Z,100230.29
2023-05-20T03:32:17.438Z,100228.67
2023-05-20T03:34:45.218Z,100225.76
2023-05-20T03:37:12.477Z,100227.14
2023-05-20T03:39:39.828Z,100228.48
2023-05-20T03:42:08.210Z,100226.14
2023-05-20T03:46:43.176Z,100228.32
2023-05-20T03:49:10.722Z,100229.45
2023-05-20T03:51:39.202Z,100225.02
2023-05-20T03:54:09.954Z,100224.61
2023-05-20T03:56:37.508Z,100225.10
2023-05-20T03:59:05.068Z,100224.02
2023-05-20T04:01:34.311Z,100222.13
2023-05-20T04:04:01.771Z,100221.55
2023-05-20T04:06:29.390Z,100223.45
2023-05-20T04:08:57.565Z,100224.90
2023-05-20T04:11:24.922Z,100226.66
2023-05-20T04:13:52.178Z,100224.26
2023-05-20T04:16:20.364Z,100228.25
2023-05-20T04:18:48.759Z,100232.91
2023-05-20T04:21:16.207Z,100237.92
2023-05-20T04:23:43.755Z,100244.75
2023-05-20T04:26:11.003Z,100245.95
2023-05-20T04:28:39.690Z,100246.90
2023-05-20T04:31:07.152Z,100248.42
2023-05-20T04:33:39.802Z,100248.45
2023-05-20T04:36:08.854Z,100246.20
2023-05-20T04:38:36.489Z,100243.48
2023-05-20T04:41:04.469Z,100240.77
2023-05-20T04:43:32.126Z,100243.84
2023-05-20T04:46:06.474Z,100244.75
2023-05-20T04:48:34.207Z,100247.85
2023-05-20T04:51:01.773Z,100251.02
2023-05-20T04:53:30.969Z,100252.16
2023-05-20T04:55:58.236Z,100254.85
2023-05-20T04:58:25.501Z,100259.41
2023-05-20T05:00:53.342Z,100259.34
2023-05-20T05:03:20.599Z,100257.65
2023-05-20T05:05:48.587Z,100260.10
2023-05-20T05:08:17.061Z,100259.66
2023-05-20T05:10:48.921Z,100257.88
2023-05-20T05:13:16.477Z,100253.30
2023-05-20T05:15:43.784Z,100250.66
2023-05-20T05:18:12.302Z,100253.40
2023-05-20T05:20:39.979Z,100255.08
2023-05-20T05:23:07.442Z,100256.51
2023-05-20T05:25:35.030Z,100255.61
2023-05-20T05:28:02.562Z,100253.66
2023-05-20T05:30:30.740Z,100258.23
2023-05-20T05:32:58.209Z,100251.17
2023-05-20T05:35:26.827Z,100260.52
2023-05-20T05:37:54.570Z,100261.16
2023-05-20T05:40:21.901Z,100257.67
2023-05-20T05:42:49.152Z,100262.23
2023-05-20T05:45:16.441Z,100266.78
2023-05-20T05:47:43.779Z,100267.34
2023-05-20T05:50:11.743Z,100264.69
2023-05-20T05:52:39.090Z,100262.11
2023-05-20T05:55:09.565Z,100264.77
2023-05-20T05:57:36.990Z,100262.98
2023-05-20T06:00:05.278Z,100263.28
2023-05-20T06:02:45.700Z,100266.20
2023-05-20T06:05:13.805Z,100262.75
2023-05-20T06:07:41.352Z,100259.02
2023-05-20T06:10:09.158Z,100260.90
2023-05-20T06:12:36.780Z,100254.86
2023-05-20T06:15:04.644Z,100249.06
2023-05-20T06:17:31.843Z,100252.76
2023-05-20T06:20:00.201Z,100251.33
2023-05-20T06:22:27.543Z,100252.91
2023-05-20T06:24:56.877Z,100256.11
2023-05-20T06:27:25.317Z,100255.02
2023-05-20T06:29:52.574Z,100254.79
2023-05-20T06:32:19.833Z,100258.94
2023-05-20T06:34:47.180Z,100257.94
2023-05-20T06:37:14.849Z,100259.34
2023-05-20T06:39:42.105Z,100258.09
2023-05-20T06:42:09.465Z,100258.55
2023-05-20T06:44:37.326Z,100256.04
2023-05-20T06:47:33.579Z,100258.16
2023-05-20T06:50:02.141Z,100253.05
2023-05-20T06:52:30.422Z,100259.80
2023-05-20T06:54:57.652Z,100251.48
2023-05-20T06:57:25.139Z,100254.38
2023-05-20T06:59:52.386Z,100252.58
2023-05-20T07:02:22.152Z,100255.23
2023-05-20T07:04:49.706Z,100253.35
2023-05-20T07:07:17.679Z,100250.29
2023-05-20T07:09:45.805Z,100248.94
2023-05-20T07:12:13.098Z,100250.19
2023-05-20T07:14:40.309Z,100251.34
2023-05-20T07:17:07.566Z,100248.66
2023-05-20T07:19:35.018Z,100254.06
2023-05-20T07:22:02.683Z,100255.21
2023-05-20T07:24:47.859Z,100254.30
2023-05-20T07:27:15.108Z,100249.72
2023-05-20T07:29:42.972Z,100250.41
2023-05-20T07:32:11.082Z,100256.91
2023-05-20T07:34:38.919Z,100259.33
2023-05-20T07:37:06.685Z,100267.48
2023-05-20T07:39:33.942Z,100272.30
2023-05-20T07:42:01.213Z,100271.33
2023-05-20T07:44:28.754Z,100270.11
2023-05-20T07:46:56.422Z,100269.85
2023-05-20T07:49:23.664Z,100273.14
2023-05-20T07:51:51.126Z,100273.73
2023-05-20T07:54:18.394Z,100267.08
2023-05-20T07:56:48.089Z,100266.86
2023-05-20T07:59:17.915Z,100264.91
2023-05-20T08:01:47.960Z,100258.20
2023-05-20T08:04:16.558Z,100258.27
2023-05-20T08:06:44.892Z,100263.88
2023-05-20T08:09:16.233Z,100255.97
2023-05-20T08:11:47.681Z,100250.55
2023-05-20T08:14:15.448Z,100254.21
2023-05-20T08:16:43.954Z,100247.05
2023-05-20T08:19:11.511Z,100246.33
2023-05-20T08:21:39.564Z,100246.59
2023-05-20T08:24:07.543Z,100254.13
2023-05-20T08:26:35.511Z,100250.23
2023-05-20T08:29:02.860Z,100253.47
2023-05-20T08:31:30.182Z,100256.37
2023-05-20T08:33:58.186Z,100252.16
2023-05-20T08:36:25.697Z,100255.73
2023-05-20T08:38:53.111Z,100262.96
2023-05-20T08:41:22.834Z,100259.96
2023-05-20T08:43:50.890Z,100255.86
2023-05-20T08:46:19.593Z,100251.48
2023-05-20T08:48:47.139Z,100248.26
2023-05-20T08:51:14.388Z,100250.41
2023-05-20T08:53:41.642Z,100246.48
2023-05-20T08:56:08.793Z,100244.86
2023-05-20T08:58:36.352Z,100244.56
2023-05-20T09:01:03.564Z,100244.36
2023-05-20T09:03:30.890Z,100244.06
2023-05-20T09:06:09.365Z,100243.15
2023-05-20T09:08:36.836Z,100241.65
2023-05-20T09:11:04.305Z,100234.73
2023-05-20T09:13:32.978Z,100239.33
2023-05-20T09:16:01.757Z,100242.16
2023-05-20T09:18:29.744Z,100238.51
2023-05-20T09:20:57.480Z,100240.67
2023-05-20T09:23:28.244Z,100247.71
2023-05-20T09:25:55.402Z,100248.33
2023-05-20T09:28:25.436Z,100244.14
2023-05-20T09:30:58.475Z,100242.72
2023-05-20T09:33:30.876Z,100242.10
2023-05-20T09:36:06.210Z,100238.02
2023-05-20T09:38:38.320Z,100242.54
2023-05-20T09:41:13.418Z,100241.52
2023-05-20T09:43:40.780Z,100236.77
2023-05-20T09:46:08.776Z,100232.19
2023-05-20T09:48:37.695Z,100241.10
2023-05-20T09:51:06.477Z,100236.48
2023-05-20T09:53:33.720Z,100242.80
2023-05-20T09:56:01.453Z,100245.82
2023-05-20T09:58:29.559Z,100233.39
2023-05-20T10:00:56.901Z,100239.80
2023-05-20T10:03:25.294Z,100237.30
2023-05-20T10:06:02.135Z,100234.98
2023-05-20T10:08:47.719Z,100236.08
2023-05-20T10:11:15.178Z,100231.50
2023-05-20T10:14:10.080Z,100225.98
2023-05-20T10:17:20.765Z,100229.02
2023-05-20T10:19:48.011Z,100229.69
2023-05-20T10:22:15.362Z,100228.09
2023-05-20T10:24:44.267Z,100221.30
2023-05-20T10:27:15.210Z,100221.35
2023-05-20T10:32:26.774Z,100218.98
2023-05-20T10:34:55.901Z,100222.66
2023-05-20T10:37:31.409Z,100217.62
2023-05-20T10:40:09.575Z,100212.97
2023-05-20T10:42:38.143Z,100212.42
2023-05-20T10:45:06.312Z,100210.03
2023-05-20T10:47:33.589Z,100202.71
2023-05-20T10:50:02.459Z,100195.71
2023-05-20T10:52:33.624Z,100207.50
2023-05-20T10:55:01.372Z,100199.45
2023-05-20T10:57:29.288Z,100202.95
2023-05-20T10:59:56.695Z,100206.50
2023-05-20T11:02:32.805Z,100211.39
2023-05-20T11:05:00.131Z,100208.38
2023-05-20T11:07:29.059Z,100205.24
2023-05-20T11:09:57.058Z,100205.73
2023-05-20T11:12:24.814Z,100202.85
2023-05-20T11:14:52.209Z,100197.45
2023-05-20T11:17:19.953Z,100205.67
2023-05-20T11:19:51.215Z,100191.34
2023-05-20T11:22:18.581Z,100200.75
2023-05-20T11:24:46.848Z,100200.56
2023-05-20T11:27:14.217Z,100198.66
2023-05-20T11:29:41.770Z,100194.15
2023-05-20T11:32:09.297Z,100192.79
2023-05-20T11:34:37.617Z,100193.42
2023-05-20T11:37:09.629Z,100194.80
2023-05-20T11:39:37.788Z,100191.56
2023-05-20T11:42:06.539Z,100192.59
2023-05-20T11:44:34.400Z,100190.20
2023-05-20T11:47:02.318Z,100183.10
2023-05-20T11:49:31.072Z,100181.26
2023-05-20T11:51:58.926Z,100178.64
2023-05-20T11:54:26.588Z,100179.02
2023-05-20T11:56:54.910Z,100181.24
2023-05-20T11:59:22.332Z,100178.16
2023-05-20T12:01:49.604Z,100171.52
2023-05-20T12:04:18.244Z,100172.98
2023-05-20T12:06:46.142Z,100165.50
2023-05-20T12:09:14.504Z,100167.98
2023-05-20T12:11:42.287Z,100170.02
2023-05-20T12:14:09.939Z,100174.73
2023-05-20T12:16:37.944Z,100167.94
2023-05-20T12:19:05.529Z,100159.22
2023-05-20T12:21:32.824Z,100162.14
2023-05-20T12:24:00.286Z,100160.86
2023-05-20T12:26:28.476Z,100161.89
2023-05-20T12:28:56.546Z,100164.96
2023-05-20T12:31:23.929Z,100165.75
2023-05-20T12:33:51.242Z,100164.55
2023-05-20T12:36:20.025Z,100162.65
2023-05-20T12:38:47.600Z,100164.01
2023-05-20T12:41:14.945Z,100152.95
2023-05-20T12:43:42.209Z,100149.60
2023-05-20T12:46:09.552Z,100148.27
2023-05-20T12:48:37.481Z,100151.83
2023-05-20T12:51:05.543Z,100144.58
2023-05-20T12:53:32.851Z,100139.20
2023-05-20T12:56:00.180Z,100144.54
2023-05-20T12:58:27.450Z,100140.69
2023-05-20T13:00:54.737Z,100143.19
2023-05-20T13:03:22.062Z,100143.92
2023-05-20T13:05:49.423Z,100131.64
2023-05-20T13:08:16.902Z,100130.06
2023-05-20T13:10:44.030Z,100126.87
2023-05-20T13:13:11.590Z,100131.63
2023-05-20T13:15:39.253Z,100132.89
2023-05-20T13:18:07.404Z,100127.75
2023-05-20T13:20:35.054Z,100125.80
2023-05-20T13:23:02.651Z,100126.98
2023-05-20T13:25:32.057Z,100126.18
2023-05-20T13:27:59.307Z,100116.00
2023-05-20T13:30:26.769Z,100118.61
2023-05-20T13:32:54.105Z,100123.80
2023-05-20T13:35:21.690Z,100120.98
2023-05-20T13:37:49.044Z,100126.89
2023-05-20T13:40:16.288Z,100121.91
2023-05-20T13:42:44.574Z,100120.77
2023-05-20T13:45:12.343Z,100119.83
2023-05-20T13:47:39.591Z,100120.67
2023-05-20T13:50:07.879Z,100120.97
2023-05-20T13:52:35.221Z,100117.33
2023-05-20T13:55:02.578Z,100119.18
2023-05-20T13:57:29.822Z,100119.64
2023-05-20T13:59:57.080Z,100115.55
2023-05-20T14:02:24.391Z,100118.35
2023-05-20T14:04:51.792Z,100118.15
2023-05-20T14:07:19.054Z,100113.99
2023-05-20T14:09:46.302Z,100108.77
2023-05-20T14:12:13.553Z,100115.02
2023-05-20T14:14:40.957Z,100115.52
2023-05-20T14:17:08.205Z,100116.79
2023-05-20T14:19:35.560Z,100115.16
2023-05-20T14:22:03.692Z,100120.35
2023-05-20T14:24:30.893Z,100118.85
2023-05-20T14:26:58.239Z,100114.45
2023-05-20T14:29:25.659Z,100116.29
2023-05-20T14:31:52.906Z,100119.56
2023-05-20T14:34:20.261Z,100115.61
2023-05-20T14:36:47.946Z,100113.68
2023-05-20T14:39:15.437Z,100110.42
2023-05-20T14:41:42.642Z,100108.85
2023-05-20T14:44:09.892Z,100100.29
2023-05-20T14:46:37.371Z,100097.72
2023-05-20T14:49:04.806Z,100094.29
2023-05-20T14:51:32.264Z,100088.76
2023-05-20T14:53:59.827Z,100095.08
2023-05-20T14:56:27.086Z,100098.36
2023-05-20T14:58:54.331Z,100092.52
2023-05-20T15:01:21.659Z,100094.59
2023-05-20T15:03:48.954Z,100090.05
2023-05-20T15:06:16.505Z,100088.50
2023-05-20T15:08:43.778Z,100087.04
2023-05-20T15:11:11.466Z,100086.23
2023-05-20T15:13:40.378Z,100086.61
2023-05-20T15:16:08.133Z,100084.20
2023-05-20T15:18:35.329Z,100085.95
2023-05-20T15:21:02.692Z,100079.04
2023-05-20T15:23:30.042Z,100075.38
2023-05-20T15:25:58.839Z,100078.79
2023-05-20T15:28:26.040Z,100074.55
2023-05-20T15:30:55.263Z,100074.89
2023-05-20T15:33:22.932Z,100078.33
2023-05-20T15:35:50.302Z,100071.54
2023-05-20T15:38:17.972Z,100072.88
2023-05-20T15:40:45.117Z,100070.29
2023-05-20T15:43:12.367Z,100067.58
2023-05-20T15:45:39.779Z,100065.89
2023-05-20T15:48:07.429Z,100067.52
2023-05-20T15:50:37.985Z,100064.05
2023-05-20T15:53:06.624Z,100063.04
2023-05-20T15:55:34.169Z,100062.60
2023-05-20T15:58:01.733Z,100060.73
2023-05-20T16:00:29.089Z,100060.27
2023-05-20T16:04:15.171Z,100060.85
2023-05-20T16:06:42.955Z,100060.89
2023-05-20T16:09:10.218Z,100064.22
2023-05-20T16:11:37.463Z,100059.45
2023-05-20T16:14:04.715Z,100058.49
2023-05-20T16:16:33.245Z,100065.29
2023-05-20T16:19:02.465Z,100058.74
2023-05-20T16:21:29.767Z,100060.63
2023-05-20T16:23:57.033Z,100063.21
2023-05-20T16:26:24.975Z,100064.02
2023-05-20T16:28:52.229Z,100061.24
2023-05-20T16:31:20.064Z,100063.00
2023-05-20T16:33:47.451Z,100062.16
2023-05-20T16:36:14.713Z,100060.49
2023-05-20T16:38:42.167Z,100066.36
2023-05-20T16:41:09.531Z,100064.42
2023-05-20T16:43:36.792Z,100068.09
2023-05-20T16:46:04.157Z,100069.63
2023-05-20T16:48:31.789Z,100068.70
2023-05-20T16:50:58.947Z,100066.02
2023-05-20T16:53:26.089Z,100067.60
2023-05-20T16:55:54.848Z,100070.81
2023-05-20T16:58:22.141Z,100074.66
2023-05-20T17:00:49.446Z,100072.20
2023-05-20T17:03:18.383Z,100075.56
2023-05-20T17:05:45.745Z,100072.20
2023-05-20T17:08:12.902Z,100070.63
2023-05-20T17:10:40.353Z,100071.19
2023-05-20T17:13:07.606Z,100072.64
2023-05-20T17:15:37.413Z,100074.08
2023-05-20T17:18:04.786Z,100073.52
2023-05-20T17:20:32.654Z,100073.06
2023-05-20T17:23:00.139Z,100073.84
2023-05-20T17:25:27.355Z,100071.39
2023-05-20T17:27:54.722Z,100072.94
2023-05-20T17:30:22.167Z,100076.55
2023-05-20T17:32:51.121Z,100072.59
2023-05-20T17:35:20.916Z,100070.52
2023-05-20T17:37:48.129Z,100070.34
2023-05-20T17:40:15.688Z,100073.61
2023-05-20T17:42:43.043Z,100072.79
2023-05-20T17:45:11.026Z,100065.02
2023-05-20T17:47:38.290Z,100073.59
2023-05-20T17:50:06.620Z,100073.64
2023-05-20T17:52:33.903Z,100075.05
2023-05-20T17:55:01.267Z,100071.63
2023-05-20T17:57:28.821Z,100076.08
2023-05-20T17:59:56.072Z,100080.44
2023-05-20T18:02:24.015Z,100080.48
2023-05-20T18:04:51.504Z,100084.14
2023-05-20T18:07:18.763Z,100087.40
2023-05-20T18:09:46.219Z,100092.30
2023-05-20T18:12:13.471Z,100096.30
2023-05-20T18:14:40.937Z,100097.13
2023-05-20T18:17:08.184Z,100102.86
2023-05-20T18:19:35.446Z,100105.63
2023-05-20T18:22:02.953Z,100103.93
2023-05-20T18:24:30.359Z,100109.15
2023-05-20T18:26:57.628Z,100115.61
2023-05-20T18:29:27.136Z,100114.70
2023-05-20T18:31:54.429Z,100115.89
2023-05-20T18:34:21.738Z,100116.79
2023-05-20T18:36:49.081Z,100115.38
2023-05-20T18:39:20.854Z,100118.91
2023-05-20T18:41:48.563Z,100116.73
2023-05-20T18:44:16.400Z,100106.41
2023-05-20T18:46:43.639Z,100115.66
2023-05-20T18:49:11.498Z,100118.10
2023-05-20T18:51:39.713Z,100116.44
2023-05-20T18:54:06.990Z,100118.17
2023-05-20T18:56:34.488Z,100117.62
2023-05-20T18:59:02.060Z,100117.38
2023-05-20T19:01:29.580Z,100120.05
2023-05-20T19:03:56.973Z,100121.08
2023-05-20T19:06:24.224Z,100121.08
2023-05-20T19:08:51.587Z,100118.55
2023-05-20T19:11:18.943Z,100123.26
2023-05-20T19:13:46.291Z,100119.70
2023-05-20T19:16:13.616Z,100128.94
2023-05-20T19:18:41.246Z,100127.83
2023-05-20T19:21:08.566Z,100129.30
2023-05-20T19:23:35.834Z,100133.40
2023-05-20T19:26:03.178Z,100137.23
2023-05-20T19:28:30.431Z,100136.36
2023-05-20T19:30:57.713Z,100137.67
2023-05-20T19:33:24.941Z,100132.71
2023-05-20T19:35:52.195Z,100134.09
2023-05-20T19:38:19.557Z,100131.10
2023-05-20T19:40:48.148Z,100131.55
2023-05-20T19:43:15.702Z,100133.65
2023-05-20T19:45:43.026Z,100135.36
2023-05-20T19:48:10.353Z,100134.48
2023-05-20T19:50:38.200Z,100138.31
2023-05-20T19:53:07.856Z,100138.38
2023-05-20T19:55:36.300Z,100142.83
2023-05-20T19:58:03.943Z,100140.30
2023-05-20T20:00:31.408Z,100145.90
2023-05-20T20:02:59.531Z,100142.44
2023-05-20T20:05:27.452Z,100141.55
2023-05-20T20:07:54.804Z,100140.89
2023-05-20T20:10:22.162Z,100137.88
2023-05-20T20:12:50.140Z,100138.71
2023-05-20T20:15:17.798Z,100133.38
2023-05-20T20:17:45.910Z,100137.95
2023-05-20T20:20:14.451Z,100138.44
2023-05-20T20:22:42.264Z,100137.14
2023-05-20T20:25:09.786Z,100136.89
2023-05-20T20:27:37.001Z,100136.46
2023-05-20T20:30:04.784Z,100131.20
2023-05-20T20:32:32.188Z,100130.88
2023-05-20T20:34:59.881Z,100129.45
2023-05-20T20:37:29.957Z,100131.92
2023-05-20T20:39:57.526Z,100130.50
2023-05-20T20:42:24.899Z,100134.63
2023-05-20T20:44:52.967Z,100136.79
2023-05-20T20:47:20.256Z,100140.90
2023-05-20T20:49:47.667Z,100140.25
2023-05-20T20:52:14.926Z,100132.64
2023-05-20T20:54:43.289Z,100131.05
2023-05-20T20:57:11.802Z,100133.52
2023-05-20T20:59:40.171Z,100131.70
2023-05-20T21:02:07.437Z,100134.09
2023-05-20T21:04:34.806Z,100132.35
2023-05-20T21:07:02.327Z,100134.02
2023-05-20T21:09:29.703Z,100135.70
2023-05-20T21:11:57.511Z,100131.84
2023-05-20T21:14:25.596Z,100134.25
2023-05-20T21:16:52.829Z,100135.12
2023-05-20T21:19:20.206Z,100133.60
2023-05-20T21:21:47.545Z,100135.29
2023-05-20T21:24:14.889Z,100141.96
2023-05-20T21:26:42.148Z,100143.30
2023-05-20T21:29:12.199Z,100144.11
2023-05-20T21:31:39.355Z,100139.09
2023-05-20T21:34:06.663Z,100141.45
2023-05-20T21:36:33.944Z,100139.65
2023-05-20T21:39:01.173Z,100142.52
2023-05-20T21:41:28.424Z,100143.42
2023-05-20T21:43:55.888Z,100140.02
2023-05-20T21:46:23.164Z,100140.77
2023-05-20T21:48:50.396Z,100143.92
2023-05-20T21:51:17.656Z,100146.14
2023-05-20T21:53:44.912Z,100149.91
2023-05-20T21:56:12.219Z,100145.80
2023-05-20T21:58:41.474Z,100145.61
2023-05-20T22:01:10.377Z,100146.36
2023-05-20T22:03:38.573Z,100145.23
2023-05-20T22:06:06.416Z,100150.23
2023-05-20T22:08:34.185Z,100151.80
2023-05-20T22:11:05.745Z,100149.58
2023-05-20T22:13:33.959Z,100148.70
2023-05-20T22:16:02.183Z,100146.90
2023-05-20T22:18:29.753Z,100149.83
2023-05-20T22:21:00.592Z,100144.75
2023-05-20T22:23:28.363Z,100141.34
2023-05-20T22:25:55.617Z,100136.11
2023-05-20T22:28:23.968Z,100139.21
2023-05-20T22:30:51.867Z,100140.35
2023-05-20T22:33:19.229Z,100140.95
2023-05-20T22:35:46.476Z,100142.04
2023-05-20T22:38:13.734Z,100142.08
2023-05-20T22:40:40.998Z,100137.05
2023-05-20T22:43:08.354Z,100132.70
2023-05-20T22:45:36.121Z,100134.21
2023-05-20T22:48:04.832Z,100136.48
2023-05-20T22:50:35.730Z,100132.32
2023-05-20T22:53:03.508Z,100129.25
2023-05-20T22:55:30.771Z,100130.44
2023-05-20T22:57:58.224Z,100133.04
2023-05-20T23:00:25.484Z,100131.88
2023-05-20T23:02:52.828Z,100134.06
2023-05-20T23:05:20.306Z,100130.42
2023-05-20T23:07:47.760Z,100127.95
2023-05-20T23:10:15.041Z,100126.23
2023-05-20T23:12:42.270Z,100125.62
2023-05-20T23:15:10.683Z,100125.71
2023-05-20T23:17:39.803Z,100120.18
2023-05-20T23:20:11.317Z,100120.79
2023-05-20T23:22:38.867Z,100122.84
2023-05-20T23:25:06.675Z,100121.98
2023-05-20T23:27:34.197Z,100118.85
2023-05-20T23:30:01.458Z,100121.09
2023-05-20T23:32:28.788Z,100120.17
2023-05-20T23:34:56.184Z,100125.23
2023-05-20T23:37:23.524Z,100126.83
2023-05-20T23:39:51.229Z,100122.58
2023-05-20T23:42:18.440Z,100121.34
2023-05-20T23:44:45.695Z,100121.90
2023-05-20T23:47:13.971Z,100119.19
2023-05-20T23:49:41.816Z,100121.30
2023-05-20T23:52:09.042Z,100118.84
2023-05-20T23:54:36.764Z,100121.63
2023-05-20T23:57:04.484Z,100119.79
2023-05-20T23:59:31.991Z,100117.67
